Time;durP1;ratioP1;P1;durP2;ratioP2;P2;SDS_P1;SDS_P2;PMS_P1;PMS_P2;Temp;Humidity;BMP_temperature;BMP_pressure;BME280_temperature;BME280_humidity;BME280_pressure;Samples;Min_cycle;Max_cycle;Signal;HPM_P1;HPM_P2
2021/11/05 00:02:20;;;;;;;;;0.00;0.00;;;;;;;;5084798;28;11994;-84
2021/11/05 00:04:48;;;;;;;;;2.25;0.00;;;;;;;;5083187;28;10808;-85
2021/11/05 00:07:15;;;;;;;;;1.00;1.00;;;;;;;;5085409;28;10589;-84
2021/11/05 00:09:43;;;;;;;;;1.00;1.00;;;;;;;;5065529;28;10756;-79
2021/11/05 00:12:10;;;;;;;;;1.00;1.00;;;;;;;;5085506;28;10671;-76
2021/11/05 00:14:38;;;;;;;;;0.00;0.00;;;;;;;;5082809;28;10752;-77
2021/11/05 00:17:06;;;;;;;;;1.00;1.00;;;;;;;;5084538;28;10751;-75
2021/11/05 00:19:34;;;;;;;;;0.50;0.50;;;;;;;;5084141;28;11395;-83
2021/11/05 00:22:02;;;;;;;;;0.00;0.00;;;;;;;;5084076;28;10686;-82
2021/11/05 00:24:29;;;;;;;;;0.25;0.25;;;;;;;;5085173;28;10592;-86
2021/11/05 00:26:57;;;;;;;;;2.25;2.25;;;;;;;;5084095;28;10681;-88
2021/11/05 00:29:24;;;;;;;;;1.50;1.50;;;;;;;;5067669;28;10771;-90
2021/11/05 00:31:51;;;;;;;;;3.00;2.25;;;;;;;;5091273;28;11618;-82
2021/11/05 00:34:19;;;;;;;;;5.00;3.00;;;;;;;;5083338;28;10826;-81
2021/11/05 00:36:48;;;;;;;;;2.00;2.00;;;;;;;;5083341;28;10850;-87
2021/11/05 00:39:15;;;;;;;;;2.00;2.00;;;;;;;;5083591;28;10872;-83
2021/11/05 00:41:43;;;;;;;;;2.00;2.00;;;;;;;;5049638;28;11513;-76
2021/11/05 00:44:10;;;;;;;;;4.00;2.00;;;;;;;;5082400;28;10694;-85
2021/11/05 00:46:37;;;;;;;;;7.00;7.00;;;;;;;;5084494;28;10789;-86
2021/11/05 00:49:05;;;;;;;;;2.25;2.25;;;;;;;;5083793;28;10972;-83
2021/11/05 00:51:32;;;;;;;;;3.50;2.50;;;;;;;;5081884;28;10711;-76
2021/11/05 00:54:01;;;;;;;;;7.00;3.00;;;;;;;;5084149;28;10982;-79
2021/11/05 00:56:28;;;;;;;;;7.25;5.50;;;;;;;;5083466;28;10729;-78
2021/11/05 00:58:56;;;;;;;;;9.25;9.25;;;;;;;;5084660;28;10806;-76
2021/11/05 01:01:23;;;;;;;;;9.00;9.00;;;;;;;;5082806;28;10841;-79
2021/11/05 01:03:50;;;;;;;;;9.25;9.25;;;;;;;;5084333;28;10985;-82
2021/11/05 01:06:18;;;;;;;;;11.00;11.00;;;;;;;;5083418;28;10861;-82
2021/11/05 01:08:46;;;;;;;;;6.00;6.00;;;;;;;;5065416;28;10988;-78
2021/11/05 01:11:15;;;;;;;;;7.00;7.00;;;;;;;;5057766;28;10667;-76
2021/11/05 01:13:43;;;;;;;;;5.00;2.00;;;;;;;;5082797;28;10763;-76
2021/11/05 01:16:10;;;;;;;;;3.50;3.50;;;;;;;;5084190;28;10546;-79
2021/11/05 01:18:37;;;;;;;;;4.25;2.00;;;;;;;;5064546;28;11253;-76
2021/11/05 01:21:05;;;;;;;;;8.75;5.00;;;;;;;;5065614;28;10530;-76
2021/11/05 01:23:32;;;;;;;;;3.00;2.00;;;;;;;;5083331;28;10617;-80
2021/11/05 01:25:59;;;;;;;;;3.00;1.00;;;;;;;;5083562;28;10454;-84
2021/11/05 01:28:28;;;;;;;;;3.00;3.00;;;;;;;;5082607;28;10545;-81
2021/11/05 01:30:55;;;;;;;;;3.00;3.00;;;;;;;;5079201;28;10582;-83
2021/11/05 01:33:23;;;;;;;;;5.75;4.00;;;;;;;;5085405;28;10550;-77
2021/11/05 01:35:51;;;;;;;;;2.75;2.00;;;;;;;;5068045;28;11364;-78
2021/11/05 01:38:19;;;;;;;;;3.00;3.00;;;;;;;;5070212;28;10740;-78
2021/11/05 01:40:46;;;;;;;;;2.25;2.25;;;;;;;;5086003;28;10566;-76
2021/11/05 01:43:16;;;;;;;;;5.25;2.75;;;;;;;;5087577;28;10609;-78
2021/11/05 01:45:47;;;;;;;;;4.00;2.00;;;;;;;;5082782;28;10577;-77
2021/11/05 01:48:15;;;;;;;;;5.00;5.00;;;;;;;;5087510;28;10541;-78
2021/11/05 01:50:42;;;;;;;;;4.75;3.00;;;;;;;;5087495;28;10520;-77
2021/11/05 01:53:10;;;;;;;;;2.00;2.00;;;;;;;;5085740;28;10560;-82
2021/11/05 01:55:38;;;;;;;;;3.00;3.00;;;;;;;;5087824;28;10653;-85
2021/11/05 01:58:05;;;;;;;;;2.00;2.00;;;;;;;;5087193;28;10700;-84
2021/11/05 02:00:34;;;;;;;;;1.00;1.00;;;;;;;;5086499;28;10442;-81
2021/11/05 02:03:02;;;;;;;;;2.50;1.75;;;;;;;;5086163;28;10406;-82
2021/11/05 02:05:30;;;;;;;;;2.75;2.00;;;;;;;;5083838;28;11332;-83
2021/11/05 02:07:58;;;;;;;;;2.00;2.00;;;;;;;;5085740;28;10475;-82
2021/11/05 02:10:28;;;;;;;;;2.00;2.00;;;;;;;;5087660;28;11298;-81
2021/11/05 02:12:56;;;;;;;;;2.00;2.00;;;;;;;;5069709;28;10424;-84
2021/11/05 02:15:24;;;;;;;;;1.00;1.00;;;;;;;;5086702;28;10585;-80
2021/11/05 02:17:52;;;;;;;;;2.50;2.00;;;;;;;;5087539;28;10537;-81
2021/11/05 02:20:25;;;;;;;;;2.75;2.00;;;;;;;;5067309;28;10483;-83
2021/11/05 02:22:56;;;;;;;;;2.50;2.50;;;;;;;;5087464;28;10487;-81
2021/11/05 02:25:23;;;;;;;;;2.00;2.00;;;;;;;;5086613;28;10551;-77
2021/11/05 02:27:51;;;;;;;;;3.00;3.00;;;;;;;;5086473;28;10604;-79
2021/11/05 02:30:19;;;;;;;;;3.00;2.00;;;;;;;;5089127;28;10514;-77
2021/11/05 02:32:47;;;;;;;;;3.00;1.50;;;;;;;;5087076;28;10482;-75
2021/11/05 02:35:16;;;;;;;;;1.25;1.25;;;;;;;;5087435;28;10614;-78
2021/11/05 02:37:44;;;;;;;;;7.75;1.50;;;;;;;;5085183;28;10517;-76
2021/11/05 02:40:13;;;;;;;;;2.00;2.00;;;;;;;;5085568;28;10640;-77
2021/11/05 02:42:41;;;;;;;;;1.00;1.00;;;;;;;;5085220;28;10462;-81
2021/11/05 02:45:10;;;;;;;;;5.75;3.25;;;;;;;;5067400;28;11234;-79
2021/11/05 02:47:37;;;;;;;;;1.50;1.50;;;;;;;;5087244;28;10660;-82
2021/11/05 02:50:08;;;;;;;;;2.00;1.00;;;;;;;;5085978;28;10637;-75
2021/11/05 02:52:35;;;;;;;;;2.00;2.00;;;;;;;;5086597;28;10516;-77
2021/11/05 02:55:03;;;;;;;;;2.75;2.00;;;;;;;;5084993;28;10683;-82
2021/11/05 02:57:32;;;;;;;;;3.00;1.00;;;;;;;;5086180;28;10498;-84
2021/11/05 02:59:59;;;;;;;;;2.50;1.75;;;;;;;;5067813;28;11232;-83
2021/11/05 03:02:27;;;;;;;;;4.50;2.00;;;;;;;;5085977;28;10639;-84
2021/11/05 03:04:55;;;;;;;;;1.00;1.00;;;;;;;;5083002;28;11626;-83
2021/11/05 03:07:22;;;;;;;;;2.50;1.50;;;;;;;;5083549;28;10515;-80
2021/11/05 03:09:50;;;;;;;;;2.00;2.00;;;;;;;;5078926;28;10751;-78
2021/11/05 03:12:18;;;;;;;;;2.00;2.00;;;;;;;;5083927;28;10599;-77
2021/11/05 03:14:47;;;;;;;;;0.00;0.00;;;;;;;;5090912;28;10613;-76
2021/11/05 03:17:14;;;;;;;;;5.25;4.50;;;;;;;;5085516;28;10664;-75
2021/11/05 03:19:42;;;;;;;;;4.00;4.00;;;;;;;;5085841;28;10770;-79
2021/11/05 03:22:10;;;;;;;;;5.00;5.00;;;;;;;;5085638;28;10780;-79
2021/11/05 03:24:37;;;;;;;;;4.50;4.50;;;;;;;;5084363;28;10772;-75
2021/11/05 03:27:05;;;;;;;;;3.00;3.00;;;;;;;;5085206;28;10856;-81
2021/11/05 03:29:32;;;;;;;;;5.00;2.25;;;;;;;;5084558;28;10868;-84
2021/11/05 03:32:01;;;;;;;;;2.50;2.00;;;;;;;;5073871;28;10700;-80
2021/11/05 03:34:29;;;;;;;;;5.00;2.75;;;;;;;;5085348;28;10610;-83
2021/11/05 03:36:56;;;;;;;;;3.75;3.50;;;;;;;;5090987;28;10724;-82
2021/11/05 03:39:24;;;;;;;;;5.25;5.25;;;;;;;;5085101;28;10740;-78
2021/11/05 03:41:51;;;;;;;;;15.75;12.00;;;;;;;;5085785;28;10795;-75
2021/11/05 03:44:19;;;;;;;;;18.50;14.50;;;;;;;;5066658;28;10976;-78
2021/11/05 03:46:46;;;;;;;;;12.00;10.25;;;;;;;;5066262;28;10863;-77
2021/11/05 03:49:15;;;;;;;;;17.75;15.75;;;;;;;;5085321;28;11028;-84
2021/11/05 03:51:43;;;;;;;;;8.00;8.00;;;;;;;;5084594;28;10929;-78
2021/11/05 03:54:10;;;;;;;;;3.00;3.00;;;;;;;;5084821;28;10845;-79
2021/11/05 03:56:38;;;;;;;;;2.75;2.75;;;;;;;;5085162;28;10929;-84
2021/11/05 03:59:05;;;;;;;;;8.50;6.50;;;;;;;;5084989;28;10707;-83
2021/11/05 04:01:32;;;;;;;;;26.25;22.50;;;;;;;;5085207;28;10838;-81
2021/11/05 04:04:00;;;;;;;;;59.00;47.75;;;;;;;;5083444;28;11705;-80
2021/11/05 04:06:28;;;;;;;;;63.75;52.25;;;;;;;;5085362;28;11600;-76
2021/11/05 04:08:55;;;;;;;;;71.25;58.00;;;;;;;;5084245;28;11684;-75
2021/11/05 04:11:23;;;;;;;;;72.00;56.00;;;;;;;;5085156;28;11611;-79
2021/11/05 04:13:50;;;;;;;;;73.50;56.50;;;;;;;;5084031;28;11686;-83
2021/11/05 04:16:17;;;;;;;;;68.75;50.75;;;;;;;;5084904;28;12377;-79
2021/11/05 04:18:45;;;;;;;;;47.00;42.25;;;;;;;;5084809;28;11568;-80
2021/11/05 04:21:12;;;;;;;;;48.25;41.00;;;;;;;;5080053;28;11568;-75
2021/11/05 04:23:41;;;;;;;;;53.75;45.25;;;;;;;;5066605;28;11562;-79
2021/11/05 04:26:09;;;;;;;;;41.25;36.50;;;;;;;;5076997;28;11649;-76
2021/11/05 04:28:36;;;;;;;;;34.50;33.00;;;;;;;;5085121;28;11564;-79
2021/11/05 04:31:04;;;;;;;;;37.50;35.75;;;;;;;;5083841;28;11445;-83
2021/11/05 04:33:32;;;;;;;;;19.50;18.00;;;;;;;;5083645;28;11502;-85
2021/11/05 04:36:00;;;;;;;;;16.50;16.50;;;;;;;;5084882;28;11478;-80
2021/11/05 04:38:27;;;;;;;;;16.25;16.25;;;;;;;;5083204;28;11482;-84
2021/11/05 04:40:56;;;;;;;;;11.25;7.50;;;;;;;;5083446;28;11482;-80
2021/11/05 04:43:24;;;;;;;;;19.75;16.25;;;;;;;;5083671;28;11458;-79
2021/11/05 04:45:51;;;;;;;;;14.00;10.50;;;;;;;;5083704;28;11629;-86
2021/11/05 04:48:18;;;;;;;;;3.00;3.00;;;;;;;;5083319;28;11306;-75
2021/11/05 04:50:46;;;;;;;;;2.00;2.00;;;;;;;;5066606;28;10889;-77
2021/11/05 04:53:13;;;;;;;;;4.25;2.00;;;;;;;;5083528;28;10821;-75
2021/11/05 04:55:40;;;;;;;;;2.25;2.25;;;;;;;;5065394;28;10857;-79
2021/11/05 04:58:09;;;;;;;;;3.00;2.00;;;;;;;;5083092;28;11018;-82
2021/11/05 05:00:36;;;;;;;;;2.00;2.00;;;;;;;;5081539;28;10721;-82
2021/11/05 05:03:04;;;;;;;;;2.00;2.00;;;;;;;;5084678;28;10896;-82
2021/11/05 05:05:32;;;;;;;;;3.00;3.00;;;;;;;;5078788;28;10871;-84
2021/11/05 05:07:59;;;;;;;;;4.50;4.50;;;;;;;;5083330;28;11146;-77
2021/11/05 05:10:28;;;;;;;;;10.25;5.00;;;;;;;;5082818;28;10874;-80
2021/11/05 05:12:56;;;;;;;;;2.50;2.50;;;;;;;;5065614;28;11029;-79
2021/11/05 05:15:25;;;;;;;;;5.25;5.25;;;;;;;;5085704;28;10809;-77
2021/11/05 05:17:53;;;;;;;;;5.00;5.00;;;;;;;;5083031;28;11030;-84
2021/11/05 05:20:20;;;;;;;;;6.00;4.50;;;;;;;;5066097;28;10968;-77
2021/11/05 05:22:48;;;;;;;;;9.25;6.00;;;;;;;;5083053;28;10846;-77
2021/11/05 05:25:17;;;;;;;;;5.75;5.00;;;;;;;;5084452;28;10930;-76
2021/11/05 05:27:46;;;;;;;;;7.00;6.50;;;;;;;;5083732;28;10786;-80
2021/11/05 05:30:15;;;;;;;;;5.00;5.00;;;;;;;;5079141;28;10855;-82
2021/11/05 05:32:45;;;;;;;;;2.00;2.00;;;;;;;;5090659;28;10907;-85
2021/11/05 05:35:13;;;;;;;;;4.50;4.50;;;;;;;;5083012;28;10845;-78
2021/11/05 05:37:41;;;;;;;;;2.25;2.25;;;;;;;;5084525;28;11752;-75
2021/11/05 05:40:10;;;;;;;;;6.00;6.00;;;;;;;;5097034;28;10987;-77
2021/11/05 05:42:38;;;;;;;;;9.00;9.00;;;;;;;;5082686;28;10915;-74
2021/11/05 05:45:06;;;;;;;;;6.50;5.00;;;;;;;;5083454;28;10903;-72
2021/11/05 05:47:34;;;;;;;;;3.00;3.00;;;;;;;;5083023;28;11803;-74
2021/11/05 05:50:03;;;;;;;;;3.00;3.00;;;;;;;;5065137;28;10740;-75
2021/11/05 05:52:31;;;;;;;;;8.50;5.25;;;;;;;;5082317;28;11721;-78
2021/11/05 05:54:58;;;;;;;;;4.75;4.75;;;;;;;;5082893;28;10835;-77
2021/11/05 05:57:25;;;;;;;;;4.50;2.00;;;;;;;;5082852;28;10919;-75
2021/11/05 05:59:52;;;;;;;;;2.75;2.75;;;;;;;;5066206;28;10953;-81
2021/11/05 06:02:20;;;;;;;;;3.25;2.00;;;;;;;;5082656;28;10823;-78
2021/11/05 06:04:47;;;;;;;;;2.75;2.75;;;;;;;;5082675;28;10899;-83
2021/11/05 06:07:16;;;;;;;;;4.50;4.50;;;;;;;;5083709;28;11048;-77
2021/11/05 06:09:43;;;;;;;;;4.00;4.00;;;;;;;;5082315;28;10991;-77
2021/11/05 06:12:11;;;;;;;;;1.00;1.00;;;;;;;;5083108;28;11059;-75
2021/11/05 06:14:38;;;;;;;;;3.00;3.00;;;;;;;;5082469;28;10847;-74
2021/11/05 06:17:05;;;;;;;;;3.00;3.00;;;;;;;;5083913;28;10894;-78
2021/11/05 06:19:34;;;;;;;;;2.00;2.00;;;;;;;;5085888;28;10996;-81
2021/11/05 06:22:01;;;;;;;;;2.25;2.25;;;;;;;;5087393;28;11024;-77
2021/11/05 06:24:31;;;;;;;;;2.00;2.00;;;;;;;;5087556;28;10971;-82
2021/11/05 06:26:59;;;;;;;;;1.00;1.00;;;;;;;;5086259;28;10999;-84
2021/11/05 06:29:26;;;;;;;;;2.50;2.50;;;;;;;;5087782;28;10861;-80
2021/11/05 06:31:53;;;;;;;;;1.25;1.25;;;;;;;;5096938;28;10733;-83
2021/11/05 06:34:21;;;;;;;;;2.00;2.00;;;;;;;;5091276;28;10687;-84
2021/11/05 06:36:48;;;;;;;;;2.75;2.00;;;;;;;;5067755;28;10905;-86
2021/11/05 06:39:15;;;;;;;;;2.00;2.00;;;;;;;;5087885;28;10832;-84
2021/11/05 06:41:44;;;;;;;;;0.75;0.75;;;;;;;;5087737;28;10827;-84
2021/11/05 06:44:12;;;;;;;;;1.00;1.00;;;;;;;;5087222;28;10744;-84
2021/11/05 06:46:39;;;;;;;;;1.00;1.00;;;;;;;;5069940;28;10660;-83
2021/11/05 06:49:07;;;;;;;;;2.75;1.00;;;;;;;;5086107;28;11423;-83
2021/11/05 06:51:35;;;;;;;;;2.00;0.00;;;;;;;;5069709;28;10745;-82
2021/11/05 06:54:02;;;;;;;;;1.25;1.00;;;;;;;;5083137;28;10669;-75
2021/11/05 06:56:30;;;;;;;;;1.00;1.00;;;;;;;;5063098;28;11118;-79
2021/11/05 06:59:02;;;;;;;;;1.50;1.50;;;;;;;;5065906;28;10594;-76
2021/11/05 07:01:29;;;;;;;;;2.00;2.00;;;;;;;;5075674;28;10535;-76
2021/11/05 07:03:56;;;;;;;;;1.00;1.00;;;;;;;;5085699;28;10642;-74
2021/11/05 07:06:24;;;;;;;;;1.00;1.00;;;;;;;;5084670;28;10724;-72
2021/11/05 07:08:51;;;;;;;;;1.00;1.00;;;;;;;;5085079;28;10664;-76
2021/11/05 07:11:18;;;;;;;;;1.00;1.00;;;;;;;;5064389;28;10596;-73
2021/11/05 07:13:45;;;;;;;;;2.00;1.00;;;;;;;;5085602;28;10706;-74
2021/11/05 07:16:15;;;;;;;;;2.50;2.50;;;;;;;;5085219;28;10625;-76
2021/11/05 07:18:42;;;;;;;;;1.75;1.75;;;;;;;;5083470;28;10686;-75
2021/11/05 07:21:11;;;;;;;;;1.00;1.00;;;;;;;;5084476;28;10681;-75
2021/11/05 07:23:38;;;;;;;;;1.00;1.00;;;;;;;;5084531;28;10509;-74
2021/11/05 07:26:10;;;;;;;;;1.50;1.25;;;;;;;;5085528;28;10679;-74
2021/11/05 07:28:37;;;;;;;;;0.75;0.75;;;;;;;;5080599;28;10586;-73
2021/11/05 07:31:04;;;;;;;;;1.00;1.00;;;;;;;;5086162;28;10505;-73
2021/11/05 07:33:33;;;;;;;;;0.75;0.75;;;;;;;;5084951;28;10632;-74
2021/11/05 07:36:00;;;;;;;;;3.00;1.00;;;;;;;;5083841;28;10451;-74
2021/11/05 07:38:28;;;;;;;;;2.00;2.00;;;;;;;;5082832;28;10518;-72
2021/11/05 07:40:55;;;;;;;;;2.00;2.00;;;;;;;;5082744;28;10536;-78
2021/11/05 07:43:22;;;;;;;;;2.75;2.75;;;;;;;;5063872;28;10642;-79
2021/11/05 07:45:50;;;;;;;;;3.00;1.00;;;;;;;;5084046;28;10514;-80
2021/11/05 07:48:17;;;;;;;;;4.50;0.75;;;;;;;;5085365;28;10460;-74
2021/11/05 07:50:46;;;;;;;;;2.00;2.00;;;;;;;;5062129;28;10369;-79
2021/11/05 07:53:13;;;;;;;;;1.75;1.50;;;;;;;;5062604;28;10501;-82
2021/11/05 07:55:41;;;;;;;;;4.00;2.00;;;;;;;;5062589;28;11880;-76
2021/11/05 07:58:08;;;;;;;;;4.00;2.00;;;;;;;;5094812;28;10720;-77
2021/11/05 08:00:36;;;;;;;;;5.00;1.00;;;;;;;;5060129;28;11268;-81
2021/11/05 08:03:03;;;;;;;;;0.25;0.25;;;;;;;;5059280;28;10634;-76
2021/11/05 08:05:30;;;;;;;;;3.75;0.75;;;;;;;;5063753;28;10566;-79
2021/11/05 08:07:59;;;;;;;;;0.75;0.75;;;;;;;;5060971;28;10572;-82
2021/11/05 08:10:27;;;;;;;;;2.75;1.75;;;;;;;;5062059;28;10569;-77
2021/11/05 08:12:54;;;;;;;;;1.00;1.00;;;;;;;;5061059;28;10528;-80
2021/11/05 08:15:22;;;;;;;;;1.00;1.00;;;;;;;;5062601;28;10524;-80
2021/11/05 08:17:50;;;;;;;;;2.25;0.25;;;;;;;;5062334;28;10450;-83
2021/11/05 08:20:17;;;;;;;;;4.50;0.75;;;;;;;;5062943;28;10352;-78
2021/11/05 08:22:45;;;;;;;;;1.00;1.00;;;;;;;;5061989;28;10411;-81
2021/11/05 08:25:15;;;;;;;;;1.25;1.25;;;;;;;;5060792;28;10312;-79
2021/11/05 08:27:42;;;;;;;;;7.00;5.00;;;;;;;;5062149;28;11089;-77
2021/11/05 08:30:13;;;;;;;;;0.50;0.50;;;;;;;;5061952;28;10332;-77
2021/11/05 08:32:40;;;;;;;;;3.25;3.25;;;;;;;;5060759;28;10181;-75
2021/11/05 08:35:08;;;;;;;;;7.00;6.50;;;;;;;;5063706;28;10279;-77
2021/11/05 08:37:36;;;;;;;;;1.25;1.25;;;;;;;;5059339;28;10247;-78
2021/11/05 08:40:05;;;;;;;;;1.00;0.25;;;;;;;;5062858;28;10113;-75
2021/11/05 08:42:33;;;;;;;;;1.00;1.00;;;;;;;;5061406;28;10112;-78
2021/11/05 08:45:01;;;;;;;;;3.50;1.25;;;;;;;;5063575;28;10100;-79
2021/11/05 08:47:29;;;;;;;;;3.00;2.00;;;;;;;;5062602;28;10208;-76
2021/11/05 08:49:56;;;;;;;;;2.00;2.00;;;;;;;;5061759;28;10168;-76
2021/11/05 08:52:23;;;;;;;;;6.50;3.00;;;;;;;;5083664;28;10105;-82
2021/11/05 08:54:51;;;;;;;;;1.25;0.00;;;;;;;;5082117;28;10238;-75
2021/11/05 08:57:18;;;;;;;;;1.50;1.00;;;;;;;;5082685;28;9861;-78
2021/11/05 08:59:47;;;;;;;;;1.00;1.00;;;;;;;;5082538;28;9853;-76
2021/11/05 09:02:15;;;;;;;;;0.25;0.25;;;;;;;;5081706;27;9902;-77
2021/11/05 09:04:42;;;;;;;;;6.75;6.75;;;;;;;;5081022;28;9630;-76
2021/11/05 09:07:09;;;;;;;;;1.00;1.00;;;;;;;;5077371;28;10948;-75
2021/11/05 09:09:40;;;;;;;;;2.00;2.00;;;;;;;;5077968;28;10025;-80
2021/11/05 09:12:08;;;;;;;;;1.00;1.00;;;;;;;;5080936;28;10012;-75
2021/11/05 09:14:36;;;;;;;;;2.75;2.75;;;;;;;;5082286;28;10158;-76
2021/11/05 09:17:05;;;;;;;;;2.00;0.50;;;;;;;;5062938;28;9853;-77
2021/11/05 09:19:32;;;;;;;;;5.00;0.25;;;;;;;;5081323;28;9922;-76
2021/11/05 09:22:00;;;;;;;;;2.00;2.00;;;;;;;;5082622;28;10011;-77
2021/11/05 09:24:28;;;;;;;;;5.00;2.25;;;;;;;;5064667;28;10134;-76
2021/11/05 09:26:55;;;;;;;;;3.25;3.25;;;;;;;;5065218;28;9847;-76
2021/11/05 09:29:22;;;;;;;;;3.00;3.00;;;;;;;;5082404;28;9882;-77
2021/11/05 09:31:50;;;;;;;;;3.50;2.75;;;;;;;;5084820;28;9818;-76
2021/11/05 09:34:19;;;;;;;;;2.25;2.25;;;;;;;;5082349;28;9886;-77
2021/11/05 09:36:46;;;;;;;;;2.00;2.00;;;;;;;;5083511;28;9763;-76
2021/11/05 09:39:13;;;;;;;;;1.00;1.00;;;;;;;;5097275;28;9760;-77
2021/11/05 09:41:41;;;;;;;;;1.00;0.00;;;;;;;;5083271;28;9821;-77
2021/11/05 09:44:08;;;;;;;;;0.67;0.67;;;;;;;;5082859;28;9354;-77
2021/11/05 09:46:37;;;;;;;;;2.00;1.00;;;;;;;;5082054;28;9322;-77
2021/11/05 09:49:04;;;;;;;;;4.00;3.00;;;;;;;;5083737;28;9333;-77
2021/11/05 09:51:33;;;;;;;;;2.67;1.33;;;;;;;;5082106;28;9270;-77
2021/11/05 09:54:02;;;;;;;;;3.00;3.00;;;;;;;;5084506;28;9260;-76
2021/11/05 09:56:30;;;;;;;;;3.00;1.33;;;;;;;;5086127;28;9337;-76
2021/11/05 09:58:57;;;;;;;;;0.00;0.00;;;;;;;;5087213;28;9270;-76
2021/11/05 10:01:25;;;;;;;;;1.67;1.67;;;;;;;;5086243;27;8966;-77
2021/11/05 10:03:52;;;;;;;;;1.33;1.00;;;;;;;;5068223;28;9211;-77
2021/11/05 10:06:24;;;;;;;;;3.00;3.00;;;;;;;;5087410;28;9221;-77
2021/11/05 10:08:54;;;;;;;;;1.33;1.33;;;;;;;;5067819;28;9178;-77
2021/11/05 10:11:24;;;;;;;;;2.33;2.33;;;;;;;;5087457;28;9062;-77
2021/11/05 10:13:52;;;;;;;;;1.00;1.00;;;;;;;;5084772;28;9016;-76
2021/11/05 10:16:20;;;;;;;;;0.33;0.33;;;;;;;;5086821;28;9058;-75
2021/11/05 10:19:00;;;;;;;;;4.67;4.67;;;;;;;;5084002;28;8967;-79
2021/11/05 10:21:28;;;;;;;;;2.67;2.67;;;;;;;;5083998;28;9281;-78
2021/11/05 10:24:08;;;;;;;;;3.00;3.00;;;;;;;;5081657;28;9016;-82
2021/11/05 10:26:36;;;;;;;;;1.25;0.75;;;;;;;;5082760;28;9028;-79
2021/11/05 10:29:07;;;;;;;;;1.00;1.00;;;;;;;;5083402;28;8857;-79
2021/11/05 10:31:36;;;;;;;;;2.33;1.00;;;;;;;;5085432;28;8821;-82
2021/11/05 10:34:05;;;;;;;;;3.00;3.00;;;;;;;;5083838;28;8944;-78
2021/11/05 10:36:33;;;;;;;;;2.25;2.25;;;;;;;;5084950;28;9793;-79
2021/11/05 10:39:05;;;;;;;;;1.50;1.50;;;;;;;;5084879;28;8854;-82
2021/11/05 10:41:34;;;;;;;;;1.75;1.75;;;;;;;;5086561;28;8862;-78
2021/11/05 10:44:12;;;;;;;;;2.50;1.00;;;;;;;;5084411;28;8964;-78
2021/11/05 10:46:41;;;;;;;;;2.00;2.00;;;;;;;;5066194;28;8873;-76
2021/11/05 10:49:22;;;;;;;;;2.00;1.50;;;;;;;;5083852;28;8895;-75
2021/11/05 10:51:50;;;;;;;;;3.00;1.00;;;;;;;;5084357;28;8874;-83
2021/11/05 10:54:18;;;;;;;;;1.00;1.00;;;;;;;;5081641;28;9702;-83
2021/11/05 10:56:46;;;;;;;;;1.00;1.00;;;;;;;;5084763;28;8866;-81
2021/11/05 10:59:14;;;;;;;;;0.25;0.25;;;;;;;;5084450;28;8957;-81
2021/11/05 11:01:43;;;;;;;;;1.00;1.00;;;;;;;;5083395;27;8818;-78
2021/11/05 11:04:11;;;;;;;;;2.75;2.75;;;;;;;;5079512;28;8858;-82
2021/11/05 11:06:41;;;;;;;;;0.75;0.75;;;;;;;;5079921;28;8868;-77
2021/11/05 11:09:10;;;;;;;;;2.00;2.00;;;;;;;;5078495;28;8866;-82
2021/11/05 11:11:39;;;;;;;;;0.00;0.00;;;;;;;;5084496;28;9626;-78
2021/11/05 11:14:08;;;;;;;;;2.00;1.00;;;;;;;;5084487;28;8886;-80
2021/11/05 11:16:37;;;;;;;;;2.50;2.00;;;;;;;;5085247;28;8850;-81
2021/11/05 11:19:07;;;;;;;;;2.25;2.25;;;;;;;;5099158;28;8842;-80
2021/11/05 11:21:37;;;;;;;;;2.00;2.00;;;;;;;;5082312;28;8884;-83
2021/11/05 11:24:07;;;;;;;;;0.50;0.50;;;;;;;;5080744;28;8847;-82
2021/11/05 11:26:35;;;;;;;;;1.00;1.00;;;;;;;;5084401;28;8814;-76
2021/11/05 11:29:04;;;;;;;;;0.00;0.00;;;;;;;;5082818;28;8864;-79
2021/11/05 11:31:32;;;;;;;;;2.25;2.25;;;;;;;;5080380;28;8848;-82
2021/11/05 11:34:03;;;;;;;;;5.25;5.25;;;;;;;;5084633;28;8878;-77
2021/11/05 11:36:34;;;;;;;;;6.25;6.25;;;;;;;;5097421;28;8870;-79
2021/11/05 11:39:04;;;;;;;;;1.75;1.00;;;;;;;;5082537;28;8870;-78
2021/11/05 11:41:34;;;;;;;;;1.00;1.00;;;;;;;;5086005;28;8949;-80
2021/11/05 11:44:04;;;;;;;;;1.75;1.75;;;;;;;;5095156;28;8890;-74
2021/11/05 11:46:54;;;;;;;;;1.00;1.00;;;;;;;;5085802;28;8878;-75
2021/11/05 11:49:34;;;;;;;;;0.00;0.00;;;;;;;;5087201;28;8873;-79
2021/11/05 11:52:01;;;;;;;;;0.00;0.00;;;;;;;;5090216;28;8885;-79
2021/11/05 11:54:31;;;;;;;;;0.00;0.00;;;;;;;;5082709;28;8872;-75
2021/11/05 11:57:12;;;;;;;;;0.00;0.00;;;;;;;;5068568;28;8858;-80
2021/11/05 11:59:42;;;;;;;;;1.00;1.00;;;;;;;;5084698;28;8913;-80
2021/11/05 12:02:33;;;;;;;;;0.75;0.75;;;;;;;;5098648;28;8826;-77
2021/11/05 12:05:01;;;;;;;;;1.00;1.00;;;;;;;;5072627;28;8930;-76
2021/11/05 12:07:28;;;;;;;;;1.50;1.00;;;;;;;;5083522;28;8866;-81
2021/11/05 12:10:33;;;;;;;;;2.00;0.00;;;;;;;;5082885;28;9048;-82
2021/11/05 12:13:00;;;;;;;;;1.00;1.00;;;;;;;;5080922;28;8850;-79
2021/11/05 12:15:29;;;;;;;;;1.00;1.00;;;;;;;;5080419;28;8896;-79
2021/11/05 12:18:10;;;;;;;;;3.00;3.00;;;;;;;;5082438;28;8866;-76
2021/11/05 12:20:43;;;;;;;;;6.75;5.25;;;;;;;;5082083;28;8961;-81
2021/11/05 12:23:28;;;;;;;;;5.75;5.75;;;;;;;;5081337;28;8870;-77
2021/11/05 12:26:00;;;;;;;;;3.50;3.50;;;;;;;;5082697;28;8865;-80
2021/11/05 12:28:39;;;;;;;;;1.75;1.75;;;;;;;;5083490;28;8963;-81
2021/11/05 12:31:29;;;;;;;;;5.00;5.00;;;;;;;;5083939;28;8813;-82
2021/11/05 12:33:57;;;;;;;;;5.00;4.00;;;;;;;;5078998;28;8854;-82
2021/11/05 12:36:46;;;;;;;;;3.75;3.75;;;;;;;;5081988;28;8969;-84
2021/11/05 12:39:13;;;;;;;;;3.00;1.00;;;;;;;;5082492;28;8842;-84
2021/11/05 12:41:59;;;;;;;;;1.25;1.25;;;;;;;;5064186;28;9537;-84
2021/11/05 12:44:28;;;;;;;;;1.00;1.00;;;;;;;;5081536;28;8955;-80
2021/11/05 12:46:57;;;;;;;;;1.00;1.00;;;;;;;;5078995;28;8885;-82
2021/11/05 12:49:25;;;;;;;;;5.00;5.00;;;;;;;;5078780;28;8878;-80
2021/11/05 12:51:53;;;;;;;;;4.00;4.00;;;;;;;;5085234;28;8904;-83
2021/11/05 12:54:23;;;;;;;;;1.00;1.00;;;;;;;;5079081;28;8940;-84
2021/11/05 12:56:54;;;;;;;;;5.00;5.00;;;;;;;;5082323;28;8889;-78
2021/11/05 12:59:25;;;;;;;;;7.50;7.00;;;;;;;;5079615;28;8865;-78
2021/11/05 13:01:56;;;;;;;;;4.25;3.00;;;;;;;;5081356;27;8863;-79
2021/11/05 13:04:24;;;;;;;;;0.50;0.00;;;;;;;;5082218;28;8846;-86
2021/11/05 13:06:55;;;;;;;;;3.00;3.00;;;;;;;;5080916;28;8874;-84
2021/11/05 13:09:24;;;;;;;;;10.50;8.25;;;;;;;;5083787;28;8866;-85
2021/11/05 13:12:04;;;;;;;;;3.50;2.00;;;;;;;;5080803;28;8850;-81
2021/11/05 13:14:59;;;;;;;;;9.25;6.00;;;;;;;;5082691;28;8914;-81
2021/11/05 13:17:37;;;;;;;;;3.00;2.00;;;;;;;;5081563;28;9002;-82
2021/11/05 13:20:07;;;;;;;;;1.25;1.25;;;;;;;;5079160;28;8888;-83
2021/11/05 13:22:38;;;;;;;;;7.50;5.00;;;;;;;;5081391;28;8890;-84
2021/11/05 13:25:20;;;;;;;;;4.75;4.75;;;;;;;;5080041;28;8988;-84
2021/11/05 13:27:54;;;;;;;;;1.25;1.25;;;;;;;;5079933;28;8867;-75
2021/11/05 13:30:28;;;;;;;;;2.25;1.00;;;;;;;;5081196;28;9701;-85
2021/11/05 13:32:57;;;;;;;;;3.00;1.75;;;;;;;;5062930;28;8889;-84
2021/11/05 13:35:25;;;;;;;;;2.67;2.67;;;;;;;;5082773;28;9008;-77
2021/11/05 13:38:00;;;;;;;;;0.50;0.50;;;;;;;;5062042;28;8885;-80
2021/11/05 13:40:28;;;;;;;;;2.00;2.00;;;;;;;;5064375;28;8878;-82
2021/11/05 13:42:55;;;;;;;;;5.50;3.00;;;;;;;;5079101;28;8846;-80
2021/11/05 13:45:22;;;;;;;;;1.75;1.75;;;;;;;;5082347;28;8880;-86
2021/11/05 13:47:50;;;;;;;;;7.25;7.00;;;;;;;;5062556;28;8866;-81
2021/11/05 13:50:22;;;;;;;;;6.50;6.50;;;;;;;;5064393;28;8909;-78
2021/11/05 13:52:54;;;;;;;;;5.00;5.00;;;;;;;;5082535;28;8861;-79
2021/11/05 13:55:33;;;;;;;;;6.50;5.00;;;;;;;;5082467;28;8876;-79
2021/11/05 13:58:01;;;;;;;;;11.25;9.25;;;;;;;;5082271;28;8963;-81
2021/11/05 14:00:29;;;;;;;;;12.00;11.50;;;;;;;;5097823;28;8797;-79
2021/11/05 14:02:57;;;;;;;;;8.75;7.50;;;;;;;;5082995;28;8842;-83
2021/11/05 14:05:29;;;;;;;;;4.75;4.75;;;;;;;;5084162;28;8807;-75
2021/11/05 14:08:06;;;;;;;;;27.00;21.00;;;;;;;;5094409;28;8896;-83
2021/11/05 14:10:46;;;;;;;;;13.25;10.75;;;;;;;;5084168;28;8866;-82
2021/11/05 14:13:13;;;;;;;;;5.00;5.00;;;;;;;;5082917;28;8870;-84
2021/11/05 14:15:41;;;;;;;;;1.75;1.75;;;;;;;;5083359;28;8905;-75
2021/11/05 14:18:13;;;;;;;;;2.00;0.75;;;;;;;;5083510;28;8854;-80
2021/11/05 14:20:42;;;;;;;;;0.25;0.25;;;;;;;;5082708;28;8862;-80
2021/11/05 14:23:40;;;;;;;;;0.00;0.00;;;;;;;;5083338;28;8862;-81
2021/11/05 14:26:18;;;;;;;;;0.00;0.00;;;;;;;;5000318;28;8904;-82
2021/11/05 14:28:46;;;;;;;;;2.00;2.00;;;;;;;;5070763;28;8900;-80
2021/11/05 14:31:13;;;;;;;;;0.25;0.25;;;;;;;;5080023;28;8817;-80
2021/11/05 14:33:40;;;;;;;;;3.00;1.00;;;;;;;;5082514;28;8866;-83
2021/11/05 14:36:22;;;;;;;;;0.00;0.00;;;;;;;;5078326;28;8943;-78
2021/11/05 14:38:55;;;;;;;;;0.00;0.00;;;;;;;;5081217;28;8921;-84
2021/11/05 14:41:31;;;;;;;;;0.00;0.00;;;;;;;;5086246;28;8999;-75
2021/11/05 14:44:00;;;;;;;;;1.00;0.00;;;;;;;;5083807;28;8854;-80
2021/11/05 14:46:43;;;;;;;;;0.00;0.00;;;;;;;;5085325;28;8992;-80
2021/11/05 14:49:14;;;;;;;;;0.00;0.00;;;;;;;;5085480;28;8862;-78
2021/11/05 14:51:43;;;;;;;;;1.00;0.00;;;;;;;;5086705;28;9702;-78
2021/11/05 14:54:10;;;;;;;;;0.00;0.00;;;;;;;;5087409;28;8870;-77
2021/11/05 14:56:38;;;;;;;;;0.00;0.00;;;;;;;;5086564;28;8874;-74
2021/11/05 14:59:06;;;;;;;;;12.25;8.50;;;;;;;;5087010;28;8870;-82